createdAt,value
2018-08-20T00:01:48.555Z,100371.00
2018-08-20T00:04:16.400Z,100365.59
2018-08-20T00:06:54.629Z,100362.83
2018-08-20T00:09:32.069Z,100362.59
2018-08-20T00:11:59.834Z,100362.46
2018-08-20T00:14:27.561Z,100356.91
2018-08-20T00:16:55.335Z,100358.18
2018-08-20T00:19:23.238Z,100357.09
2018-08-20T00:21:50.997Z,100347.03
2018-08-20T00:24:18.732Z,100349.18
2018-08-20T00:26:46.492Z,100358.28
2018-08-20T00:29:14.276Z,100352.81
2018-08-20T00:31:42.035Z,100349.17
2018-08-20T00:34:09.804Z,100359.22
2018-08-20T00:36:37.604Z,100350.70
2018-08-20T00:39:07.257Z,100343.83
2018-08-20T00:41:35.032Z,100351.34
2018-08-20T00:44:06.517Z,100347.52
2018-08-20T00:46:34.272Z,100351.22
2018-08-20T00:49:02.041Z,100356.37
2018-08-20T00:51:29.865Z,100348.72
2018-08-20T00:53:57.632Z,100357.32
2018-08-20T00:56:25.356Z,100353.28
2018-08-20T00:58:53.181Z,100341.21
2018-08-20T01:01:20.946Z,100344.12
2018-08-20T01:03:49.004Z,100338.70
2018-08-20T01:06:16.794Z,100339.30
2018-08-20T01:08:44.540Z,100335.02
2018-08-20T01:11:12.434Z,100330.25
2018-08-20T01:13:40.185Z,100343.80
2018-08-20T01:16:07.959Z,100341.08
2018-08-20T01:18:35.742Z,100338.70
2018-08-20T01:21:03.474Z,100338.25
2018-08-20T01:23:31.331Z,100332.11
2018-08-20T01:25:59.372Z,100338.56
2018-08-20T01:28:27.167Z,100344.42
2018-08-20T01:30:54.934Z,100338.95
2018-08-20T01:33:23.543Z,100343.02
2018-08-20T01:35:51.291Z,100340.73
2018-08-20T01:38:19.068Z,100335.66
2018-08-20T01:40:46.803Z,100335.73
2018-08-20T01:43:14.580Z,100340.02
2018-08-20T01:45:42.384Z,100336.56
2018-08-20T01:48:10.195Z,100337.89
2018-08-20T01:50:37.957Z,100334.88
2018-08-20T01:53:05.716Z,100342.84
2018-08-20T01:55:33.467Z,100341.80
2018-08-20T01:58:01.174Z,100341.27
2018-08-20T02:00:28.978Z,100347.81
2018-08-20T02:03:01.196Z,100346.22
2018-08-20T02:05:29.010Z,100350.58
2018-08-20T02:07:56.889Z,100345.70
2018-08-20T02:10:24.918Z,100340.78
2018-08-20T02:12:52.750Z,100333.13
2018-08-20T02:15:20.589Z,100330.83
2018-08-20T02:17:48.428Z,100335.96
2018-08-20T02:20:16.198Z,100324.55
2018-08-20T02:22:43.924Z,100333.62
2018-08-20T02:25:11.723Z,100333.88
2018-08-20T02:27:39.822Z,100334.80
2018-08-20T02:30:07.880Z,100334.19
2018-08-20T02:32:35.899Z,100333.57
2018-08-20T02:35:04.283Z,100331.59
2018-08-20T02:37:36.540Z,100330.12
2018-08-20T02:40:06.341Z,100328.18
2018-08-20T02:42:34.256Z,100323.66
2018-08-20T02:45:02.713Z,100320.81
2018-08-20T02:47:30.519Z,100325.01
2018-08-20T02:49:58.312Z,100314.76
2018-08-20T02:52:26.126Z,100322.37
2018-08-20T02:54:54.062Z,100311.95
2018-08-20T02:57:21.821Z,100314.25
2018-08-20T02:59:49.621Z,100310.47
2018-08-20T03:02:17.485Z,100308.28
2018-08-20T03:04:45.216Z,100305.66
2018-08-20T03:07:13.263Z,100307.91
2018-08-20T03:09:41.048Z,100306.59
2018-08-20T03:12:08.834Z,100305.66
2018-08-20T03:14:36.573Z,100307.38
2018-08-20T03:17:04.918Z,100305.16
2018-08-20T03:19:32.823Z,100307.72
2018-08-20T03:22:00.616Z,100311.63
2018-08-20T03:24:28.451Z,100311.16
2018-08-20T03:26:56.316Z,100312.41
2018-08-20T03:29:24.097Z,100304.80
2018-08-20T03:31:51.865Z,100306.40
2018-08-20T03:34:19.721Z,100313.16
2018-08-20T03:36:47.477Z,100307.97
2018-08-20T03:39:15.434Z,100309.00
2018-08-20T03:41:43.279Z,100299.20
2018-08-20T03:44:11.039Z,100309.94
2018-08-20T03:46:38.834Z,100299.81
2018-08-20T03:49:06.675Z,100297.95
2018-08-20T03:51:34.508Z,100308.83
2018-08-20T03:54:02.268Z,100310.51
2018-08-20T03:56:31.848Z,100311.16
2018-08-20T03:58:59.616Z,100308.28
2018-08-20T04:01:27.467Z,100309.75
2018-08-20T04:03:55.492Z,100303.31
2018-08-20T04:06:23.304Z,100309.91
2018-08-20T04:08:51.012Z,100313.76
2018-08-20T04:11:18.789Z,100313.23
2018-08-20T04:13:46.554Z,100312.27
2018-08-20T04:16:14.326Z,100305.53
2018-08-20T04:18:42.248Z,100307.94
2018-08-20T04:21:10.011Z,100311.15
2018-08-20T04:23:37.757Z,100308.50
2018-08-20T04:26:05.556Z,100306.02
2018-08-20T04:28:33.320Z,100308.42
2018-08-20T04:31:01.428Z,100310.10
2018-08-20T04:33:29.397Z,100313.88
2018-08-20T04:35:57.221Z,100312.07
2018-08-20T04:38:25.007Z,100309.75
2018-08-20T04:40:52.758Z,100296.98
2018-08-20T04:43:20.493Z,100295.42
2018-08-20T04:45:48.653Z,100300.84
2018-08-20T04:48:16.435Z,100296.84
2018-08-20T04:50:44.214Z,100300.84
2018-08-20T04:53:11.976Z,100304.35
2018-08-20T04:55:39.723Z,100301.55
2018-08-20T04:58:07.505Z,100294.75
2018-08-20T05:00:35.700Z,100286.83
2018-08-20T05:03:03.477Z,100287.36
2018-08-20T05:05:31.276Z,100283.73
2018-08-20T05:07:59.049Z,100277.20
2018-08-20T05:10:26.785Z,100281.50
2018-08-20T05:12:54.549Z,100273.72
2018-08-20T05:15:22.369Z,100275.47
2018-08-20T05:17:50.296Z,100265.90
2018-08-20T05:20:18.021Z,100270.18
2018-08-20T05:22:45.757Z,100267.75
2018-08-20T05:25:13.578Z,100265.71
2018-08-20T05:27:41.341Z,100264.86
2018-08-20T05:30:09.446Z,100256.06
2018-08-20T05:32:37.416Z,100253.66
2018-08-20T05:35:06.026Z,100257.09
2018-08-20T05:37:33.744Z,100248.30
2018-08-20T05:40:01.521Z,100243.28
2018-08-20T05:42:29.246Z,100246.91
2018-08-20T05:44:57.137Z,100247.22
2018-08-20T05:47:24.975Z,100248.88
2018-08-20T05:49:52.772Z,100242.23
2018-08-20T05:52:20.603Z,100237.20
2018-08-20T05:54:48.367Z,100245.42
2018-08-20T05:57:16.228Z,100237.27
2018-08-20T05:59:44.027Z,100240.73
2018-08-20T06:02:11.791Z,100239.41
2018-08-20T06:04:39.504Z,100238.36
2018-08-20T06:07:07.385Z,100239.25
2018-08-20T06:09:35.298Z,100241.72
2018-08-20T06:12:03.103Z,100242.64
2018-08-20T06:14:30.878Z,100237.04
2018-08-20T06:16:58.715Z,100240.59
2018-08-20T06:19:26.511Z,100239.64
2018-08-20T06:21:54.293Z,100234.69
2018-08-20T06:24:22.107Z,100237.38
2018-08-20T06:26:49.851Z,100234.10
2018-08-20T06:29:17.654Z,100234.63
2018-08-20T06:31:45.505Z,100221.59
2018-08-20T06:34:13.517Z,100226.83
2018-08-20T06:36:41.304Z,100228.46
2018-08-20T06:39:09.515Z,100222.63
2018-08-20T06:41:37.394Z,100228.56
2018-08-20T06:44:05.561Z,100228.83
2018-08-20T06:46:33.484Z,100222.35
2018-08-20T06:49:01.362Z,100218.45
2018-08-20T06:51:29.176Z,100218.79
2018-08-20T06:53:56.986Z,100220.48
2018-08-20T06:56:24.741Z,100220.56
2018-08-20T06:58:52.494Z,100209.19
2018-08-20T07:01:20.301Z,100212.74
2018-08-20T07:03:48.107Z,100209.09
2018-08-20T07:06:15.908Z,100219.08
2018-08-20T07:08:43.786Z,100217.47
2018-08-20T07:11:11.552Z,100215.44
2018-08-20T07:13:39.316Z,100217.92
2018-08-20T07:16:08.162Z,100209.09
2018-08-20T07:18:36.036Z,100201.92
2018-08-20T07:21:03.889Z,100200.91
2018-08-20T07:23:31.758Z,100209.70
2018-08-20T07:25:59.570Z,100209.34
2018-08-20T07:28:27.355Z,100209.91
2018-08-20T07:30:55.114Z,100210.70
2018-08-20T07:33:22.896Z,100216.65
2018-08-20T07:35:50.733Z,100210.56
2018-08-20T07:38:18.536Z,100205.98
2018-08-20T07:40:46.343Z,100204.62
2018-08-20T07:43:14.150Z,100203.97
2018-08-20T07:45:41.956Z,100209.34
2018-08-20T07:48:09.820Z,100212.94
2018-08-20T07:50:37.690Z,100207.67
2018-08-20T07:53:05.847Z,100203.47
2018-08-20T07:55:33.712Z,100208.72
2018-08-20T07:58:01.538Z,100204.31
2018-08-20T08:00:29.296Z,100200.07
2018-08-20T08:02:57.072Z,100194.47
2018-08-20T08:05:24.912Z,100204.11
2018-08-20T08:07:52.760Z,100205.64
2018-08-20T08:10:20.600Z,100205.31
2018-08-20T08:15:16.102Z,100203.60
2018-08-20T08:17:44.994Z,100199.39
2018-08-20T08:20:14.020Z,100192.13
2018-08-20T08:22:42.195Z,100202.09
2018-08-20T08:25:10.361Z,100193.47
2018-08-20T08:27:38.398Z,100191.78
2018-08-20T08:30:12.888Z,100193.09
2018-08-20T08:32:40.714Z,100198.67
2018-08-20T08:35:09.107Z,100204.94
2018-08-20T08:37:37.401Z,100201.47
2018-08-20T08:40:05.243Z,100199.35
2018-08-20T08:42:33.064Z,100197.09
2018-08-20T08:45:00.962Z,100195.38
2018-08-20T08:47:28.784Z,100204.78
2018-08-20T08:49:56.692Z,100201.56
2018-08-20T08:52:24.505Z,100206.63
2018-08-20T08:54:52.387Z,100207.79
2018-08-20T08:57:20.218Z,100208.99
2018-08-20T08:59:48.052Z,100200.72
2018-08-20T09:02:15.828Z,100199.02
2018-08-20T09:04:43.774Z,100206.59
2018-08-20T09:07:11.649Z,100202.73
2018-08-20T09:09:39.428Z,100203.23
2018-08-20T09:12:07.300Z,100204.28
2018-08-20T09:14:35.065Z,100204.98
2018-08-20T09:17:02.935Z,100204.45
2018-08-20T09:19:30.826Z,100202.95
2018-08-20T09:21:58.683Z,100204.27
2018-08-20T09:24:26.471Z,100196.52
2018-08-20T09:26:54.374Z,100200.23
2018-08-20T09:29:22.473Z,100208.02
2018-08-20T09:31:50.280Z,100204.97
2018-08-20T09:34:18.089Z,100203.94
2018-08-20T09:36:45.905Z,100201.76
2018-08-20T09:39:13.705Z,100196.15
2018-08-20T09:41:41.541Z,100196.09
2018-08-20T09:44:09.322Z,100208.09
2018-08-20T09:46:37.124Z,100196.45
2018-08-20T09:49:04.945Z,100205.44
2018-08-20T09:51:32.797Z,100205.16
2018-08-20T09:54:00.652Z,100205.47
2018-08-20T09:56:28.575Z,100199.56
2018-08-20T09:58:56.506Z,100199.16
2018-08-20T10:01:24.344Z,100197.85
2018-08-20T10:03:52.148Z,100193.64
2018-08-20T10:06:20.008Z,100200.31
2018-08-20T10:08:47.784Z,100201.08
2018-08-20T10:11:15.629Z,100202.41
2018-08-20T10:13:43.477Z,100204.18
2018-08-20T10:16:11.310Z,100195.15
2018-08-20T10:18:39.500Z,100203.37
2018-08-20T10:21:08.252Z,100194.59
2018-08-20T10:23:36.076Z,100181.37
2018-08-20T10:26:04.001Z,100188.27
2018-08-20T10:28:31.775Z,100185.65
2018-08-20T10:30:59.557Z,100186.52
2018-08-20T10:33:27.316Z,100183.55
2018-08-20T10:35:55.150Z,100187.38
2018-08-20T10:38:22.909Z,100191.06
2018-08-20T10:40:50.768Z,100184.98
2018-08-20T10:43:18.548Z,100179.66
2018-08-20T10:45:51.793Z,100177.08
2018-08-20T10:48:21.776Z,100177.50
2018-08-20T10:50:49.532Z,100174.52
2018-08-20T10:53:17.327Z,100178.92
2018-08-20T10:55:45.165Z,100184.84
2018-08-20T10:58:13.023Z,100184.17
2018-08-20T11:00:40.861Z,100182.96
2018-08-20T11:03:08.725Z,100177.39
2018-08-20T11:05:36.568Z,100175.48
2018-08-20T11:08:04.404Z,100167.99
2018-08-20T11:10:32.191Z,100173.84
2018-08-20T11:13:00.047Z,100167.80
2018-08-20T11:15:27.887Z,100167.68
2018-08-20T11:17:55.784Z,100165.45
2018-08-20T11:20:23.580Z,100172.58
2018-08-20T11:22:51.590Z,100151.03
2018-08-20T11:25:19.361Z,100165.50
2018-08-20T11:27:47.200Z,100162.59
2018-08-20T11:30:15.365Z,100160.09
2018-08-20T11:32:43.339Z,100159.78
2018-08-20T11:35:11.768Z,100154.45
2018-08-20T11:37:39.672Z,100147.08
2018-08-20T11:40:08.190Z,100156.19
2018-08-20T11:42:36.024Z,100156.67
2018-08-20T11:45:04.059Z,100149.30
2018-08-20T11:47:31.868Z,100152.89
2018-08-20T11:49:59.696Z,100147.95
2018-08-20T11:52:27.591Z,100160.31
2018-08-20T11:54:55.366Z,100148.14
2018-08-20T11:57:23.130Z,100137.42
2018-08-20T11:59:50.916Z,100130.09
2018-08-20T12:02:18.765Z,100137.47
2018-08-20T12:04:46.530Z,100135.14
2018-08-20T12:07:14.389Z,100144.77
2018-08-20T12:09:42.260Z,100144.27
2018-08-20T12:12:10.108Z,100141.78
2018-08-20T12:14:38.257Z,100145.16
2018-08-20T12:17:06.170Z,100145.08
2018-08-20T12:19:34.032Z,100136.66
2018-08-20T12:22:01.838Z,100130.17
2018-08-20T12:24:30.304Z,100131.72
2018-08-20T12:26:58.128Z,100138.92
2018-08-20T12:29:25.907Z,100135.70
2018-08-20T12:31:53.692Z,100145.75
2018-08-20T12:34:21.504Z,100141.91
2018-08-20T12:36:49.340Z,100143.13
2018-08-20T12:39:17.888Z,100135.16
2018-08-20T12:41:45.669Z,100142.37
2018-08-20T12:44:13.470Z,100142.05
2018-08-20T12:46:41.408Z,100143.20
2018-08-20T12:49:09.262Z,100147.80
2018-08-20T12:51:37.076Z,100147.47
2018-08-20T12:54:04.921Z,100145.97
2018-08-20T12:56:32.708Z,100137.47
2018-08-20T12:59:00.494Z,100139.67
2018-08-20T13:01:28.372Z,100141.05
2018-08-20T13:03:56.212Z,100130.20
2018-08-20T13:06:23.965Z,100129.00
2018-08-20T13:08:51.855Z,100128.78
2018-08-20T13:11:19.663Z,100130.42
2018-08-20T13:13:47.496Z,100133.21
2018-08-20T13:16:15.307Z,100133.38
2018-08-20T13:18:43.185Z,100126.14
2018-08-20T13:21:11.052Z,100124.81
2018-08-20T13:23:38.926Z,100127.70
2018-08-20T13:26:06.827Z,100126.48
2018-08-20T13:28:34.723Z,100127.17
2018-08-20T13:31:02.938Z,100123.43
2018-08-20T13:33:30.833Z,100114.30
2018-08-20T13:35:58.628Z,100110.75
2018-08-20T13:38:26.468Z,100121.78
2018-08-20T13:40:54.400Z,100119.07
2018-08-20T13:43:22.269Z,100115.69
2018-08-20T13:45:50.119Z,100117.89
2018-08-20T13:48:18.005Z,100111.12
2018-08-20T13:50:45.828Z,100108.89
2018-08-20T13:53:13.636Z,100105.30
2018-08-20T13:55:41.605Z,100096.66
2018-08-20T13:58:09.413Z,100097.87
2018-08-20T14:00:37.181Z,100093.67
2018-08-20T14:03:04.957Z,100103.81
2018-08-20T14:05:32.786Z,100099.42
2018-08-20T14:08:00.711Z,100106.77
2018-08-20T14:10:28.573Z,100112.17
2018-08-20T14:12:56.544Z,100103.70
2018-08-20T14:15:24.394Z,100110.18
2018-08-20T14:17:52.216Z,100106.13
2018-08-20T14:20:20.061Z,100106.72
2018-08-20T14:22:47.970Z,100109.78
2018-08-20T14:25:16.404Z,100118.75
2018-08-20T14:27:44.233Z,100115.75
2018-08-20T14:30:13.833Z,100124.37
2018-08-20T14:32:42.173Z,100114.75
2018-08-20T14:35:10.870Z,100112.87
2018-08-20T14:37:39.147Z,100114.56
2018-08-20T14:40:10.436Z,100108.95
2018-08-20T14:42:38.248Z,100122.94
2018-08-20T14:45:08.603Z,100116.23
2018-08-20T14:47:36.498Z,100120.38
2018-08-20T14:50:05.829Z,100113.86
2018-08-20T14:52:34.136Z,100115.08
2018-08-20T14:55:01.918Z,100112.95
2018-08-20T14:57:29.675Z,100117.44
2018-08-20T14:59:57.592Z,100123.83
2018-08-20T15:02:25.455Z,100120.75
2018-08-20T15:04:53.262Z,100117.78
2018-08-20T15:07:21.073Z,100117.89
2018-08-20T15:09:48.846Z,100115.42
2018-08-20T15:12:16.685Z,100125.00
2018-08-20T15:14:44.497Z,100119.91
2018-08-20T15:17:12.389Z,100113.51
2018-08-20T15:19:41.185Z,100109.14
2018-08-20T15:22:09.004Z,100113.27
2018-08-20T15:24:36.781Z,100110.84
2018-08-20T15:27:04.615Z,100123.25
2018-08-20T15:29:32.412Z,100117.73
2018-08-20T15:32:00.276Z,100112.27
2018-08-20T15:34:28.073Z,100116.97
2018-08-20T15:36:55.923Z,100119.94
2018-08-20T15:39:23.783Z,100111.58
2018-08-20T15:41:51.595Z,100110.52
2018-08-20T15:44:19.397Z,100117.27
2018-08-20T15:46:47.216Z,100110.12
2018-08-20T15:49:15.019Z,100106.50
2018-08-20T15:51:42.787Z,100110.31
2018-08-20T15:54:10.581Z,100109.18
2018-08-20T15:56:38.353Z,100107.45
2018-08-20T15:59:06.217Z,100101.53
2018-08-20T16:01:34.060Z,100107.29
2018-08-20T16:04:01.796Z,100110.95
2018-08-20T16:06:29.624Z,100113.41
2018-08-20T16:08:57.448Z,100105.27
2018-08-20T16:11:25.228Z,100114.93
2018-08-20T16:13:53.071Z,100111.55
2018-08-20T16:16:20.886Z,100111.55
2018-08-20T16:18:48.716Z,100106.45
2018-08-20T16:21:16.569Z,100107.97
2018-08-20T16:23:44.403Z,100110.19
2018-08-20T16:26:12.166Z,100106.97
2018-08-20T16:28:40.807Z,100103.53
2018-08-20T16:31:08.621Z,100102.74
2018-08-20T16:33:36.390Z,100106.22
2018-08-20T16:36:04.325Z,100108.56
2018-08-20T16:38:32.159Z,100113.38
2018-08-20T16:41:00.022Z,100109.14
2018-08-20T16:43:27.837Z,100109.67
2018-08-20T16:45:55.606Z,100112.41
2018-08-20T16:48:23.486Z,100114.00
2018-08-20T16:50:52.295Z,100119.41
2018-08-20T16:53:20.169Z,100116.25
2018-08-20T16:55:47.943Z,100115.55
2018-08-20T16:58:15.804Z,100112.89
2018-08-20T17:00:43.620Z,100116.69
2018-08-20T17:03:12.421Z,100112.80
2018-08-20T17:05:47.513Z,100120.32
2018-08-20T17:08:21.016Z,100122.77
2018-08-20T17:10:49.162Z,100113.75
2018-08-20T17:13:16.974Z,100121.05
2018-08-20T17:15:44.877Z,100119.59
2018-08-20T17:18:12.774Z,100118.84
2018-08-20T17:20:40.560Z,100122.97
2018-08-20T17:23:18.848Z,100122.60
2018-08-20T17:25:46.867Z,100119.80
2018-08-20T17:28:18.423Z,100120.14
2018-08-20T17:30:46.252Z,100128.12
2018-08-20T17:33:14.079Z,100134.41
2018-08-20T17:35:43.371Z,100134.89
2018-08-20T17:38:11.191Z,100130.16
2018-08-20T17:40:39.779Z,100139.83
2018-08-20T17:43:08.290Z,100140.53
2018-08-20T17:45:36.055Z,100140.72
2018-08-20T17:48:04.012Z,100136.27
2018-08-20T17:50:42.172Z,100134.86
2018-08-20T17:53:09.989Z,100145.28
2018-08-20T17:55:37.837Z,100149.23
2018-08-20T17:58:05.753Z,100150.66
2018-08-20T18:00:41.702Z,100151.03
2018-08-20T18:03:18.821Z,100143.38
2018-08-20T18:05:53.083Z,100154.11
2018-08-20T18:08:21.717Z,100156.19
2018-08-20T18:10:49.675Z,100157.80
2018-08-20T18:13:34.160Z,100157.20
2018-08-20T18:16:04.435Z,100158.55
2018-08-20T18:18:33.232Z,100159.16
2018-08-20T18:21:01.069Z,100157.22
2018-08-20T18:23:30.306Z,100163.39
2018-08-20T18:25:58.109Z,100158.91
2018-08-20T18:28:25.956Z,100164.83
2018-08-20T18:30:59.527Z,100167.07
2018-08-20T18:33:28.850Z,100170.81
2018-08-20T18:36:01.323Z,100169.72
2018-08-20T18:38:32.149Z,100168.91
2018-08-20T18:41:00.053Z,100166.55
2018-08-20T18:43:27.943Z,100167.83
2018-08-20T18:45:55.782Z,100173.23
2018-08-20T18:48:28.070Z,100170.81
2018-08-20T18:50:56.009Z,100169.34
2018-08-20T18:53:28.356Z,100171.84
2018-08-20T18:56:04.213Z,100176.48
2018-08-20T18:58:33.015Z,100173.81
2018-08-20T19:01:00.886Z,100174.97
2018-08-20T19:03:33.203Z,100173.13
2018-08-20T19:06:03.587Z,100173.97
2018-08-20T19:08:31.798Z,100177.11
2018-08-20T19:10:59.762Z,100177.92
2018-08-20T19:13:27.933Z,100178.16
2018-08-20T19:15:55.860Z,100178.31
2018-08-20T19:18:29.717Z,100188.53
2018-08-20T19:20:57.516Z,100190.88
2018-08-20T19:23:25.444Z,100189.22
2018-08-20T19:25:53.428Z,100184.91
2018-08-20T19:28:22.269Z,100193.44
2018-08-20T19:30:51.045Z,100196.05
2018-08-20T19:33:23.612Z,100196.63
2018-08-20T19:35:52.225Z,100200.20
2018-08-20T19:38:20.559Z,100202.39
2018-08-20T19:40:58.901Z,100200.25
2018-08-20T19:43:31.384Z,100205.73
2018-08-20T19:45:59.228Z,100209.64
2018-08-20T19:48:27.051Z,100212.23
2018-08-20T19:50:54.844Z,100213.02
2018-08-20T19:53:23.965Z,100214.77
2018-08-20T19:55:52.319Z,100217.20
2018-08-20T19:58:25.271Z,100224.12
2018-08-20T20:01:04.332Z,100223.58
2018-08-20T20:03:33.068Z,100227.86
2018-08-20T20:06:01.425Z,100226.55
2018-08-20T20:08:29.742Z,100228.56
2018-08-20T20:10:57.743Z,100229.80
2018-08-20T20:13:25.828Z,100232.05
2018-08-20T20:15:53.590Z,100229.41
2018-08-20T20:18:21.488Z,100236.39
2018-08-20T20:20:49.303Z,100239.55
2018-08-20T20:23:17.412Z,100243.91
2018-08-20T20:25:45.964Z,100245.44
2018-08-20T20:28:13.824Z,100243.46
2018-08-20T20:30:41.609Z,100247.33
2018-08-20T20:33:09.783Z,100248.13
2018-08-20T20:35:37.629Z,100249.80
2018-08-20T20:38:06.030Z,100255.47
2018-08-20T20:40:33.816Z,100260.49
2018-08-20T20:43:01.640Z,100257.68
2018-08-20T20:45:30.467Z,100261.98
2018-08-20T20:47:58.226Z,100262.27
2018-08-20T20:50:26.040Z,100259.10
2018-08-20T20:52:53.950Z,100263.02
2018-08-20T20:55:21.794Z,100267.27
2018-08-20T20:57:49.561Z,100265.73
2018-08-20T21:00:17.455Z,100265.14
2018-08-20T21:02:45.206Z,100265.01
2018-08-20T21:05:13.090Z,100270.55
2018-08-20T21:07:40.876Z,100268.14
2018-08-20T21:10:08.773Z,100273.92
2018-08-20T21:12:36.584Z,100279.88
2018-08-20T21:15:05.589Z,100281.33
2018-08-20T21:17:34.838Z,100276.96
2018-08-20T21:20:02.678Z,100280.19
2018-08-20T21:22:30.637Z,100276.36
2018-08-20T21:24:58.498Z,100279.19
2018-08-20T21:27:26.769Z,100277.59
2018-08-20T21:30:01.001Z,100275.63
2018-08-20T21:32:29.078Z,100278.52
2018-08-20T21:34:56.886Z,100279.64
2018-08-20T21:37:24.730Z,100280.73
2018-08-20T21:39:52.466Z,100281.19
2018-08-20T21:42:28.445Z,100288.36
2018-08-20T21:44:57.358Z,100284.48
2018-08-20T21:47:26.742Z,100293.70
2018-08-20T21:49:54.539Z,100290.20
2018-08-20T21:52:22.315Z,100289.80
2018-08-20T21:54:50.150Z,100287.87
2018-08-20T21:57:17.953Z,100286.23
2018-08-20T21:59:57.288Z,100292.74
2018-08-20T22:02:30.226Z,100288.00
2018-08-20T22:04:58.140Z,100297.13
2018-08-20T22:07:25.937Z,100300.12
2018-08-20T22:09:54.143Z,100305.95
2018-08-20T22:12:21.915Z,100305.29
2018-08-20T22:14:49.804Z,100303.33
2018-08-20T22:17:23.045Z,100305.05
2018-08-20T22:19:50.941Z,100303.80
2018-08-20T22:22:22.964Z,100309.93
2018-08-20T22:25:00.635Z,100311.79
2018-08-20T22:27:29.507Z,100318.91
2018-08-20T22:30:02.572Z,100312.36
2018-08-20T22:32:31.133Z,100323.14
2018-08-20T22:34:59.173Z,100319.19
2018-08-20T22:37:26.945Z,100323.14
2018-08-20T22:40:00.329Z,100322.09
2018-08-20T22:42:41.728Z,100321.95
2018-08-20T22:45:10.524Z,100326.05
2018-08-20T22:47:38.640Z,100322.92
2018-08-20T22:50:06.396Z,100326.23
2018-08-20T22:52:34.130Z,100331.52
2018-08-20T22:55:01.959Z,100334.61
2018-08-20T22:57:29.760Z,100332.16
2018-08-20T22:59:57.513Z,100328.61
2018-08-20T23:02:25.282Z,100332.56
2018-08-20T23:04:58.712Z,100333.02
2018-08-20T23:07:26.483Z,100335.16
2018-08-20T23:09:54.560Z,100335.34
2018-08-20T23:12:26.812Z,100334.75
2018-08-20T23:14:54.707Z,100331.25
2018-08-20T23:17:22.567Z,100334.75
2018-08-20T23:19:50.362Z,100340.80
2018-08-20T23:22:18.152Z,100344.48
2018-08-20T23:24:50.368Z,100348.97
2018-08-20T23:27:19.687Z,100351.75
2018-08-20T23:29:47.463Z,100349.70
2018-08-20T23:32:15.313Z,100351.77
2018-08-20T23:34:43.039Z,100355.31
2018-08-20T23:37:10.837Z,100349.58
2018-08-20T23:39:38.622Z,100360.00
2018-08-20T23:42:06.552Z,100355.48
2018-08-20T23:44:34.265Z,100355.57
2018-08-20T23:47:02.051Z,100356.63
2018-08-20T23:49:29.788Z,100366.00
2018-08-20T23:51:57.585Z,100362.81
2018-08-20T23:54:25.414Z,100367.73
2018-08-20T23:56:53.211Z,100359.69
2018-08-20T23:59:20.947Z,100361.59
